Time;durP1;ratioP1;P1;durP2;ratioP2;P2;SDS_P1;SDS_P2;PMS_P1;PMS_P2;Temp;Humidity;BMP_temperature;BMP_pressure;BME280_temperature;BME280_humidity;BME280_pressure;Samples;Min_cycle;Max_cycle;Signal;HPM_P1;HPM_P2
2023/03/27 00:01:04;;;;;;;0.38;0.20;;;4.80;99.90;;;;;;5022429;28;20430;-72
2023/03/27 00:03:30;;;;;;;1.30;0.30;;;4.70;99.90;;;;;;5023374;28;20049;-73
2023/03/27 00:06:15;;;;;;;1.13;0.40;;;4.70;99.90;;;;;;5024388;28;20095;-73
2023/03/27 00:08:46;;;;;;;1.40;0.40;;;4.70;99.90;;;;;;5024180;28;20037;-73
2023/03/27 00:11:12;;;;;;;3.53;0.45;;;4.70;99.90;;;;;;5023182;28;20091;-73
2023/03/27 00:13:38;;;;;;;1.75;0.43;;;4.70;99.90;;;;;;5023926;28;20037;-72
2023/03/27 00:16:04;;;;;;;0.30;0.20;;;4.70;99.90;;;;;;5004890;28;20080;-73
2023/03/27 00:18:32;;;;;;;2.72;0.22;;;4.70;99.90;;;;;;5024120;28;20045;-73
2023/03/27 00:21:00;;;;;;;0.20;0.20;;;4.70;99.90;;;;;;5024809;28;20088;-73
2023/03/27 00:23:30;;;;;;;0.20;0.20;;;4.70;99.90;;;;;;5018213;28;20038;-73
2023/03/27 00:25:57;;;;;;;3.92;1.25;;;4.70;99.90;;;;;;5024272;28;20049;-73
2023/03/27 00:28:28;;;;;;;0.30;0.30;;;4.70;99.90;;;;;;5023598;28;20092;-73
2023/03/27 00:30:55;;;;;;;1.85;0.40;;;4.70;99.90;;;;;;5022777;28;20048;-72
2023/03/27 00:33:22;;;;;;;2.35;0.32;;;4.70;99.90;;;;;;5022043;28;20056;-72
2023/03/27 00:35:49;;;;;;;0.17;0.17;;;4.60;99.90;;;;;;5022337;28;20048;-73
2023/03/27 00:38:17;;;;;;;1.30;0.20;;;4.60;99.90;;;;;;5023494;28;20107;-73
2023/03/27 00:40:44;;;;;;;1.90;0.25;;;4.60;99.90;;;;;;5023383;28;20468;-73
2023/03/27 00:43:33;;;;;;;1.45;0.32;;;4.60;99.90;;;;;;5023219;28;20042;-73
2023/03/27 00:46:14;;;;;;;1.20;0.28;;;4.60;99.90;;;;;;5021942;28;20466;-72
2023/03/27 00:48:42;;;;;;;1.98;0.28;;;4.60;99.90;;;;;;5019215;28;20430;-73
2023/03/27 00:51:08;;;;;;;1.00;0.32;;;4.50;99.90;;;;;;5007498;28;20494;-73
2023/03/27 00:53:34;;;;;;;0.40;0.30;;;4.50;99.90;;;;;;5023361;28;20390;-73
2023/03/27 00:56:06;;;;;;;1.63;0.20;;;4.50;99.90;;;;;;5022820;28;20122;-73
2023/03/27 00:58:42;;;;;;;2.53;0.30;;;4.50;99.90;;;;;;5022322;28;20654;-73
2023/03/27 01:01:10;;;;;;;3.28;0.30;;;4.60;99.90;;;;;;5020689;28;20133;-73
2023/03/27 01:03:37;;;;;;;0.30;0.30;;;4.50;99.90;;;;;;5023513;28;20532;-73
2023/03/27 01:06:04;;;;;;;0.75;0.50;;;4.60;99.90;;;;;;5022668;28;20103;-73
2023/03/27 01:08:32;;;;;;;0.40;0.30;;;4.60;99.90;;;;;;5023408;28;20033;-72
2023/03/27 01:11:06;;;;;;;1.55;0.30;;;4.60;99.90;;;;;;5021974;28;20046;-73
2023/03/27 01:13:50;;;;;;;0.75;0.35;;;4.60;99.90;;;;;;5021716;28;20045;-73
2023/03/27 01:16:38;;;;;;;2.15;0.63;;;4.60;99.90;;;;;;5022059;28;20124;-73
2023/03/27 01:19:25;;;;;;;0.38;0.30;;;4.60;99.90;;;;;;5038144;28;20055;-73
2023/03/27 01:22:27;;;;;;;2.10;0.38;;;4.60;99.90;;;;;;5021843;28;20045;-73
2023/03/27 01:25:26;;;;;;;0.20;0.20;;;4.60;99.90;;;;;;5021212;28;20084;-73
2023/03/27 01:28:25;;;;;;;0.57;0.20;;;4.60;99.90;;;;;;4988066;28;20058;-73
2023/03/27 01:31:32;;;;;;;0.40;0.32;;;4.60;99.90;;;;;;5001584;28;20052;-73
2023/03/27 01:34:25;;;;;;;0.20;0.20;;;4.60;99.90;;;;;;4973021;28;20406;-73
2023/03/27 01:37:09;;;;;;;1.17;0.32;;;4.60;99.90;;;;;;5002141;28;20046;-73
2023/03/27 01:39:59;;;;;;;1.35;0.30;;;4.60;99.90;;;;;;5002167;28;20061;-72
2023/03/27 01:42:40;;;;;;;1.10;0.20;;;4.60;99.90;;;;;;5002246;28;20049;-73
2023/03/27 01:45:24;;;;;;;1.85;0.22;;;4.50;99.90;;;;;;5017336;28;20069;-73
2023/03/27 01:48:12;;;;;;;2.05;0.60;;;4.50;99.90;;;;;;5015194;28;20519;-73
2023/03/27 01:51:21;;;;;;;0.10;0.10;;;4.40;99.90;;;;;;5021938;28;20444;-73
2023/03/27 01:53:59;;;;;;;0.20;0.20;;;4.40;99.90;;;;;;4968261;28;20038;-73
2023/03/27 01:56:38;;;;;;;2.25;0.20;;;4.30;99.90;;;;;;5021646;28;20114;-73
2023/03/27 01:59:10;;;;;;;1.27;0.20;;;4.30;99.90;;;;;;5025179;28;20046;-73
2023/03/27 02:01:43;;;;;;;0.25;0.20;;;4.30;99.90;;;;;;5025331;28;20100;-73
2023/03/27 02:04:14;;;;;;;0.32;0.32;;;4.30;99.90;;;;;;5025033;28;20045;-71
2023/03/27 02:06:54;;;;;;;0.75;0.40;;;4.20;99.90;;;;;;5026377;28;20037;-73
2023/03/27 02:09:24;;;;;;;2.63;0.38;;;4.20;99.90;;;;;;5025233;28;20516;-73
2023/03/27 02:12:03;;;;;;;1.00;0.30;;;4.20;99.90;;;;;;5025051;28;20360;-73
2023/03/27 02:14:35;;;;;;;1.02;0.43;;;4.20;99.90;;;;;;5007561;28;20068;-73
2023/03/27 02:17:08;;;;;;;0.43;0.20;;;4.20;99.90;;;;;;5026178;28;20045;-73
2023/03/27 02:19:48;;;;;;;1.50;0.70;;;4.20;99.90;;;;;;5016075;28;20110;-73
2023/03/27 02:22:14;;;;;;;0.70;0.30;;;4.20;99.90;;;;;;5005038;28;20084;-73
2023/03/27 02:24:42;;;;;;;0.52;0.30;;;4.20;99.90;;;;;;5005345;28;20038;-73
2023/03/27 02:27:16;;;;;;;0.85;0.50;;;4.20;99.90;;;;;;5005846;28;20046;-73
2023/03/27 02:29:48;;;;;;;1.50;0.43;;;4.20;99.90;;;;;;5005636;28;20437;-73
2023/03/27 02:32:45;;;;;;;3.33;0.40;;;4.20;99.90;;;;;;5004663;28;20085;-72
2023/03/27 02:35:16;;;;;;;2.60;0.50;;;4.20;99.90;;;;;;5006286;28;20046;-72
2023/03/27 02:37:52;;;;;;;1.70;0.47;;;4.20;99.90;;;;;;4988264;28;20121;-73
2023/03/27 02:40:47;;;;;;;2.47;0.40;;;4.10;99.90;;;;;;5004475;28;20042;-73
2023/03/27 02:43:33;;;;;;;0.20;0.20;;;3.90;99.90;;;;;;4987829;28;20391;-73
2023/03/27 02:46:08;;;;;;;0.38;0.32;;;3.80;99.90;;;;;;5004308;28;20260;-72
2023/03/27 02:48:39;;;;;;;1.95;0.60;;;3.70;99.90;;;;;;5023754;28;20548;-73
2023/03/27 02:51:12;;;;;;;0.10;0.10;;;3.60;99.90;;;;;;5025517;28;20469;-72
2023/03/27 02:53:47;;;;;;;0.30;0.30;;;3.60;99.90;;;;;;5008312;28;20072;-72
2023/03/27 02:56:15;;;;;;;1.20;0.50;;;3.60;99.90;;;;;;5024127;28;20061;-73
2023/03/27 02:58:52;;;;;;;0.40;0.40;;;3.60;99.90;;;;;;5025038;28;20069;-73
2023/03/27 03:01:20;;;;;;;0.30;0.30;;;3.50;99.90;;;;;;5024298;28;20133;-73
2023/03/27 03:04:01;;;;;;;0.57;0.40;;;3.60;99.90;;;;;;5022866;28;20050;-72
2023/03/27 03:06:30;;;;;;;1.03;0.60;;;3.50;99.90;;;;;;5024495;28;20037;-73
2023/03/27 03:09:06;;;;;;;0.30;0.30;;;3.50;99.90;;;;;;5024432;28;20079;-73
2023/03/27 03:11:46;;;;;;;3.97;0.50;;;3.50;99.90;;;;;;5020853;28;20053;-73
2023/03/27 03:14:11;;;;;;;1.10;0.60;;;3.40;99.90;;;;;;5002980;28;20056;-73
2023/03/27 03:16:37;;;;;;;0.50;0.20;;;3.40;99.90;;;;;;5005400;28;20053;-73
2023/03/27 03:19:03;;;;;;;1.07;0.30;;;3.40;99.90;;;;;;5003967;28;20478;-72
2023/03/27 03:21:28;;;;;;;2.43;0.40;;;3.40;99.90;;;;;;5005750;28;20041;-72
2023/03/27 03:23:54;;;;;;;1.27;0.47;;;3.50;99.90;;;;;;5005153;28;20254;-73
2023/03/27 03:26:20;;;;;;;1.03;0.57;;;3.50;99.90;;;;;;5004922;28;20046;-73
2023/03/27 03:28:46;;;;;;;0.47;0.40;;;3.50;99.90;;;;;;5014794;28;20050;-72
2023/03/27 03:31:12;;;;;;;2.42;0.60;;;3.50;99.90;;;;;;5022505;28;20449;-72
2023/03/27 03:33:38;;;;;;;2.53;0.50;;;3.60;99.90;;;;;;5023809;28;20129;-73
2023/03/27 03:36:04;;;;;;;2.42;0.30;;;3.60;99.90;;;;;;5023109;28;20128;-72
2023/03/27 03:38:30;;;;;;;0.50;0.50;;;3.60;99.90;;;;;;5023271;28;20052;-73
2023/03/27 03:40:57;;;;;;;4.07;0.50;;;3.60;99.90;;;;;;5025013;28;20037;-72
2023/03/27 03:43:25;;;;;;;0.50;0.50;;;3.60;99.90;;;;;;5022736;28;20055;-73
2023/03/27 03:45:52;;;;;;;2.28;0.60;;;3.70;99.90;;;;;;5024259;28;20441;-73
2023/03/27 03:48:18;;;;;;;5.22;0.70;;;3.70;99.90;;;;;;5005962;28;20502;-73
2023/03/27 03:50:44;;;;;;;0.40;0.40;;;3.70;99.90;;;;;;5005206;28;20045;-73
2023/03/27 03:53:11;;;;;;;0.40;0.40;;;3.70;99.90;;;;;;5004127;28;20401;-72
2023/03/27 03:55:36;;;;;;;0.77;0.50;;;3.70;99.90;;;;;;5003826;28;20041;-73
2023/03/27 03:58:03;;;;;;;5.60;0.88;;;3.70;99.90;;;;;;5003076;28;20044;-73
2023/03/27 04:00:28;;;;;;;1.30;1.23;;;3.70;99.90;;;;;;5003335;28;20453;-73
2023/03/27 04:02:55;;;;;;;0.98;0.25;;;3.70;99.90;;;;;;5007519;28;20042;-72
2023/03/27 04:05:21;;;;;;;3.22;0.77;;;3.70;99.90;;;;;;5024159;28;20045;-72
2023/03/27 04:07:48;;;;;;;4.07;0.43;;;3.80;99.90;;;;;;5024214;28;20038;-73
2023/03/27 04:10:15;;;;;;;2.10;0.40;;;3.70;99.90;;;;;;5022656;28;20042;-73
2023/03/27 04:12:45;;;;;;;5.28;0.32;;;3.70;99.90;;;;;;5022843;28;20041;-73
2023/03/27 04:15:11;;;;;;;0.30;0.30;;;3.70;99.90;;;;;;5021663;28;20425;-73
2023/03/27 04:17:38;;;;;;;0.82;0.30;;;3.70;99.90;;;;;;5022949;28;20056;-73
2023/03/27 04:20:07;;;;;;;2.97;1.10;;;3.70;99.90;;;;;;5023770;28;20120;-73
2023/03/27 04:22:36;;;;;;;1.73;0.85;;;3.70;99.90;;;;;;5023872;28;20034;-73
2023/03/27 04:25:04;;;;;;;0.20;0.20;;;3.70;99.90;;;;;;5021922;28;20041;-73
2023/03/27 04:27:30;;;;;;;0.30;0.30;;;3.70;99.90;;;;;;5022426;28;20045;-73
2023/03/27 04:29:56;;;;;;;1.85;0.30;;;3.70;99.90;;;;;;5022070;28;20441;-73
2023/03/27 04:32:25;;;;;;;0.17;0.17;;;3.70;99.90;;;;;;5022528;28;20052;-72
2023/03/27 04:34:53;;;;;;;0.28;0.28;;;3.70;99.90;;;;;;5022594;28;20080;-73
2023/03/27 04:37:19;;;;;;;0.10;0.10;;;3.70;99.90;;;;;;5022279;28;20041;-73
2023/03/27 04:39:45;;;;;;;0.17;0.17;;;3.70;99.90;;;;;;5012787;28;20089;-73
2023/03/27 04:42:12;;;;;;;0.75;0.30;;;3.70;99.90;;;;;;5003797;28;20446;-73
2023/03/27 04:44:38;;;;;;;3.72;0.40;;;3.70;99.90;;;;;;5002840;28;20254;-73
2023/03/27 04:47:05;;;;;;;0.30;0.30;;;3.80;99.90;;;;;;5010540;28;20038;-73
2023/03/27 04:49:39;;;;;;;0.10;0.10;;;3.80;99.90;;;;;;5023553;28;20041;-73
2023/03/27 04:52:06;;;;;;;0.73;0.57;;;3.70;99.90;;;;;;5023209;28;20384;-73
2023/03/27 04:54:32;;;;;;;1.02;0.52;;;3.70;99.90;;;;;;5021830;28;20049;-73
2023/03/27 04:57:00;;;;;;;0.30;0.30;;;3.70;99.90;;;;;;5024121;28;20053;-72
2023/03/27 04:59:30;;;;;;;2.83;0.37;;;3.70;99.90;;;;;;5004669;28;20045;-73
2023/03/27 05:01:57;;;;;;;2.93;0.73;;;3.70;99.90;;;;;;5004105;28;20048;-73
2023/03/27 05:04:26;;;;;;;0.43;0.20;;;3.70;99.90;;;;;;5023411;28;20046;-73
2023/03/27 05:06:53;;;;;;;0.20;0.20;;;3.70;99.90;;;;;;5005779;28;20041;-73
2023/03/27 05:09:19;;;;;;;2.85;0.60;;;3.70;99.90;;;;;;5007979;28;20046;-72
2023/03/27 05:11:48;;;;;;;4.50;0.50;;;3.70;99.90;;;;;;5002505;28;20061;-72
2023/03/27 05:14:18;;;;;;;2.73;0.70;;;3.70;99.90;;;;;;5002020;28;20734;-73
2023/03/27 05:16:43;;;;;;;1.10;0.50;;;3.70;99.90;;;;;;5012539;28;20072;-73
2023/03/27 05:19:10;;;;;;;0.30;0.25;;;3.70;99.90;;;;;;5011813;28;20042;-73
2023/03/27 05:21:36;;;;;;;1.38;0.25;;;3.70;99.90;;;;;;5017125;28;20037;-74
2023/03/27 05:24:02;;;;;;;0.17;0.17;;;3.60;99.90;;;;;;5023637;28;20107;-73
2023/03/27 05:26:28;;;;;;;0.30;0.30;;;3.70;99.90;;;;;;5006695;28;20046;-75
2023/03/27 05:28:54;;;;;;;2.30;0.30;;;3.70;99.90;;;;;;5012530;28;20413;-74
2023/03/27 05:31:21;;;;;;;1.70;0.25;;;3.70;99.90;;;;;;5024621;28;20104;-75
2023/03/27 05:33:47;;;;;;;0.10;0.10;;;3.60;99.90;;;;;;5025366;28;20052;-75
2023/03/27 05:36:14;;;;;;;0.63;0.63;;;3.70;99.90;;;;;;5015325;28;20034;-75
2023/03/27 05:38:41;;;;;;;0.38;0.25;;;3.60;99.90;;;;;;5024823;28;20042;-74
2023/03/27 05:41:08;;;;;;;1.40;0.30;;;3.70;99.90;;;;;;5015004;28;20176;-75
2023/03/27 05:43:34;;;;;;;0.35;0.30;;;3.70;99.90;;;;;;5017894;28;20421;-75
2023/03/27 05:46:01;;;;;;;0.20;0.20;;;3.60;99.90;;;;;;5010319;28;20061;-73
2023/03/27 05:48:27;;;;;;;1.53;0.17;;;3.60;99.90;;;;;;5014996;28;20052;-74
2023/03/27 05:50:53;;;;;;;0.20;0.20;;;3.60;99.90;;;;;;5014854;28;20490;-73
2023/03/27 05:53:18;;;;;;;0.20;0.20;;;3.60;99.90;;;;;;5014715;28;20097;-75
2023/03/27 05:55:44;;;;;;;1.20;0.20;;;3.60;99.90;;;;;;5018301;28;21927;-78
2023/03/27 05:58:12;;;;;;;1.95;0.20;;;3.60;99.90;;;;;;5013216;28;20536;-72
2023/03/27 06:00:40;;;;;;;0.30;0.20;;;3.60;99.90;;;;;;5011999;28;20045;-72
2023/03/27 06:03:06;;;;;;;0.20;0.20;;;3.60;99.90;;;;;;5017738;28;20154;-71
2023/03/27 06:05:32;;;;;;;2.83;0.30;;;3.60;99.90;;;;;;5023931;28;20080;-73
2023/03/27 06:07:58;;;;;;;1.17;0.20;;;3.60;99.90;;;;;;5015753;28;20053;-72
2023/03/27 06:10:26;;;;;;;0.65;0.55;;;3.60;99.90;;;;;;5034539;28;20405;-74
2023/03/27 06:12:59;;;;;;;0.30;0.30;;;3.60;99.90;;;;;;5026264;28;20053;-76
2023/03/27 06:15:25;;;;;;;0.20;0.20;;;3.60;99.90;;;;;;5011722;28;20064;-77
2023/03/27 06:17:51;;;;;;;1.20;0.60;;;3.60;99.90;;;;;;5008942;28;20034;-78
2023/03/27 06:20:18;;;;;;;7.30;0.43;;;3.60;99.90;;;;;;5010552;28;20044;-80
2023/03/27 06:22:49;;;;;;;0.30;0.30;;;3.60;99.90;;;;;;5026311;28;20054;-79
2023/03/27 06:25:16;;;;;;;0.20;0.20;;;3.60;99.90;;;;;;5011358;28;20175;-83
2023/03/27 06:27:42;;;;;;;5.10;0.57;;;3.70;99.90;;;;;;5012387;28;20042;-78
2023/03/27 06:30:09;;;;;;;1.03;0.43;;;3.70;99.90;;;;;;5010051;28;20073;-77
2023/03/27 06:32:36;;;;;;;0.57;0.30;;;3.70;99.90;;;;;;5011989;28;20088;-77
2023/03/27 06:35:02;;;;;;;0.10;0.10;;;3.70;99.90;;;;;;5023899;28;20667;-77
2023/03/27 06:37:32;;;;;;;0.83;0.40;;;3.80;99.90;;;;;;5009373;28;20076;-76
2023/03/27 06:39:58;;;;;;;1.13;0.30;;;3.80;99.90;;;;;;5041335;28;20050;-77
2023/03/27 06:42:24;;;;;;;1.70;0.40;;;3.80;99.90;;;;;;5025826;28;20045;-77
2023/03/27 06:44:50;;;;;;;0.10;0.10;;;3.80;99.90;;;;;;5012463;28;20399;-76
2023/03/27 06:47:16;;;;;;;0.93;0.40;;;3.90;99.90;;;;;;5009356;28;20046;-77
2023/03/27 06:49:46;;;;;;;0.77;0.20;;;3.90;99.90;;;;;;5009911;28;20510;-74
2023/03/27 06:52:12;;;;;;;0.67;0.60;;;4.00;99.90;;;;;;5009243;28;20253;-74
2023/03/27 06:54:38;;;;;;;1.45;0.22;;;4.10;99.90;;;;;;5018255;28;20045;-74
2023/03/27 06:57:04;;;;;;;0.47;0.30;;;4.10;99.90;;;;;;5014861;28;20052;-74
2023/03/27 06:59:30;;;;;;;1.45;0.20;;;4.30;99.90;;;;;;5008465;28;20414;-74
2023/03/27 07:01:55;;;;;;;1.10;0.30;;;4.30;99.90;;;;;;5014207;28;20060;-74
2023/03/27 07:04:21;;;;;;;1.77;0.30;;;4.20;99.90;;;;;;5021018;28;20369;-74
2023/03/27 07:06:47;;;;;;;0.20;0.20;;;4.10;99.90;;;;;;5015320;28;20045;-73
2023/03/27 07:09:13;;;;;;;2.63;0.30;;;4.00;99.90;;;;;;5007460;28;20929;-74
2023/03/27 07:11:39;;;;;;;0.50;0.50;;;3.90;99.90;;;;;;5012699;28;20077;-74
2023/03/27 07:14:05;;;;;;;0.40;0.40;;;3.80;99.90;;;;;;5023513;28;20084;-75
2023/03/27 07:16:30;;;;;;;0.63;0.63;;;3.80;99.90;;;;;;5021537;28;20038;-75
2023/03/27 07:18:56;;;;;;;0.20;0.20;;;3.80;99.90;;;;;;5005477;28;20524;-74
2023/03/27 07:21:22;;;;;;;1.10;0.55;;;3.90;99.90;;;;;;5012725;28;20121;-74
2023/03/27 07:23:47;;;;;;;2.10;0.30;;;3.90;99.90;;;;;;5018784;28;20092;-74
2023/03/27 07:26:13;;;;;;;0.32;0.32;;;3.90;99.90;;;;;;5011234;28;20029;-74
2023/03/27 07:28:39;;;;;;;0.65;0.22;;;3.90;99.90;;;;;;5010438;28;20053;-75
2023/03/27 07:31:09;;;;;;;4.38;0.50;;;4.00;99.90;;;;;;5001481;28;20045;-74
2023/03/27 07:33:35;;;;;;;0.63;0.30;;;4.00;99.90;;;;;;5003302;28;20580;-74
2023/03/27 07:36:05;;;;;;;0.10;0.10;;;4.10;99.90;;;;;;5004849;28;20326;-74
2023/03/27 07:38:32;;;;;;;1.75;0.30;;;4.20;99.90;;;;;;5005425;28;20095;-75
2023/03/27 07:41:02;;;;;;;0.28;0.28;;;4.30;99.90;;;;;;5035599;28;20099;-74
2023/03/27 07:43:28;;;;;;;0.43;0.20;;;4.30;99.90;;;;;;5016360;28;20122;-77
2023/03/27 07:45:54;;;;;;;2.23;0.43;;;4.50;99.90;;;;;;5016129;28;20041;-77
2023/03/27 07:48:20;;;;;;;1.27;0.20;;;4.50;99.90;;;;;;5022844;28;20175;-77
2023/03/27 07:50:46;;;;;;;2.13;0.32;;;4.60;99.90;;;;;;5020857;28;20128;-77
2023/03/27 07:53:12;;;;;;;1.15;0.50;;;4.70;99.90;;;;;;5022813;28;20034;-77
2023/03/27 07:55:40;;;;;;;0.10;0.10;;;4.70;99.90;;;;;;5019743;28;20060;-76
2023/03/27 07:58:07;;;;;;;3.15;0.70;;;4.80;99.90;;;;;;5002915;28;20084;-76
2023/03/27 08:00:34;;;;;;;0.88;0.50;;;4.80;99.90;;;;;;5015736;28;20234;-77
2023/03/27 08:03:10;;;;;;;0.30;0.30;;;4.80;99.90;;;;;;5009700;28;20417;-77
2023/03/27 08:05:37;;;;;;;0.75;0.57;;;4.70;99.90;;;;;;5017327;28;20053;-77
2023/03/27 08:08:03;;;;;;;0.30;0.30;;;4.50;99.90;;;;;;5017434;28;20081;-77
2023/03/27 08:10:29;;;;;;;0.68;0.45;;;4.40;99.90;;;;;;5004954;28;20095;-75
2023/03/27 08:12:55;;;;;;;0.28;0.28;;;4.20;99.90;;;;;;5023385;28;20472;-75
2023/03/27 08:15:21;;;;;;;3.75;0.30;;;4.00;99.90;;;;;;5022706;28;20060;-75
2023/03/27 08:17:46;;;;;;;0.10;0.10;;;3.80;99.90;;;;;;5021566;28;20038;-75
2023/03/27 08:20:13;;;;;;;1.83;0.22;;;3.70;99.90;;;;;;5020874;28;20049;-75
2023/03/27 08:22:39;;;;;;;0.22;0.20;;;3.50;99.90;;;;;;5023463;28;20037;-75
2023/03/27 08:25:06;;;;;;;0.20;0.20;;;3.50;99.90;;;;;;5020529;28;20107;-76
2023/03/27 08:27:33;;;;;;;0.68;0.20;;;3.40;99.90;;;;;;5004344;28;20056;-76
2023/03/27 08:30:00;;;;;;;0.32;0.20;;;3.40;99.90;;;;;;5004262;28;20413;-75
2023/03/27 08:32:26;;;;;;;0.45;0.20;;;3.50;99.90;;;;;;5004363;28;20302;-75
2023/03/27 08:34:52;;;;;;;3.13;0.30;;;3.60;99.90;;;;;;5004058;28;20503;-76
2023/03/27 08:37:18;;;;;;;0.20;0.20;;;3.60;99.90;;;;;;5008336;28;20034;-76
2023/03/27 08:39:45;;;;;;;0.65;0.55;;;3.70;99.90;;;;;;5009578;28;20038;-73
2023/03/27 08:42:20;;;;;;;0.50;0.40;;;3.70;99.90;;;;;;5004166;28;20490;-72
2023/03/27 08:44:47;;;;;;;0.20;0.17;;;3.80;99.90;;;;;;5037890;28;20088;-73
2023/03/27 08:47:25;;;;;;;2.55;0.30;;;3.90;99.90;;;;;;5016067;28;20485;-75
2023/03/27 08:49:56;;;;;;;0.20;0.20;;;4.00;99.90;;;;;;5023098;28;20042;-75
2023/03/27 08:52:25;;;;;;;0.52;0.35;;;4.10;99.90;;;;;;5015304;28;20078;-76
2023/03/27 08:55:12;;;;;;;1.77;0.20;;;4.20;99.90;;;;;;5019158;28;20095;-75
2023/03/27 08:57:38;;;;;;;2.13;0.30;;;4.30;99.90;;;;;;5023344;28;20107;-76
2023/03/27 09:00:08;;;;;;;0.73;0.32;;;4.50;99.90;;;;;;5000106;28;20053;-73
2023/03/27 09:02:49;;;;;;;1.20;0.22;;;4.60;99.90;;;;;;5012241;28;20095;-73
2023/03/27 09:05:31;;;;;;;0.30;0.30;;;4.70;99.90;;;;;;4985896;28;20065;-73
2023/03/27 09:08:20;;;;;;;2.65;0.45;;;4.70;99.90;;;;;;5009355;28;20631;-73
2023/03/27 09:10:53;;;;;;;3.10;0.22;;;4.80;99.90;;;;;;4985421;28;20520;-73
2023/03/27 09:13:27;;;;;;;0.65;0.20;;;4.70;99.90;;;;;;5015267;28;20045;-73
2023/03/27 09:16:03;;;;;;;1.35;0.20;;;4.80;99.90;;;;;;5018107;28;20054;-73
2023/03/27 09:19:07;;;;;;;0.10;0.10;;;4.70;99.90;;;;;;5023026;28;20053;-72
2023/03/27 09:21:41;;;;;;;1.80;0.50;;;4.70;99.90;;;;;;4966973;28;20157;-72
2023/03/27 09:24:33;;;;;;;0.20;0.20;;;4.70;99.90;;;;;;5005478;28;20049;-72
2023/03/27 09:27:19;;;;;;;3.58;0.40;;;4.70;99.90;;;;;;5011835;28;20124;-73
2023/03/27 09:29:55;;;;;;;0.17;0.17;;;4.60;99.90;;;;;;5009377;28;20049;-73
2023/03/27 09:32:21;;;;;;;0.65;0.30;;;4.60;99.90;;;;;;5020611;28;20056;-73
2023/03/27 09:34:46;;;;;;;0.32;0.32;;;4.60;99.90;;;;;;5020769;28;20136;-72
2023/03/27 09:37:15;;;;;;;0.20;0.20;;;4.60;99.90;;;;;;5004214;28;20132;-73
2023/03/27 09:39:45;;;;;;;0.10;0.10;;;4.60;99.90;;;;;;5001807;28;20053;-72
2023/03/27 09:42:18;;;;;;;0.38;0.30;;;4.70;99.90;;;;;;5018829;28;20061;-72
2023/03/27 09:44:45;;;;;;;;;;;4.70;99.90;;;;;;5021111;28;20041;-73
2023/03/27 09:47:14;;;;;;;0.30;0.30;;;4.80;99.90;;;;;;5013896;28;20385;-72
2023/03/27 09:49:56;;;;;;;3.30;0.52;;;4.80;99.90;;;;;;5015042;28;20046;-72
2023/03/27 09:52:37;;;;;;;2.45;0.60;;;4.80;99.90;;;;;;5017806;28;20045;-72
2023/03/27 09:55:29;;;;;;;0.20;0.20;;;4.90;99.90;;;;;;5003337;28;20514;-72
2023/03/27 09:58:13;;;;;;;0.70;0.30;;;5.00;99.90;;;;;;5020745;28;20137;-73
2023/03/27 10:00:39;;;;;;;2.38;0.45;;;5.10;99.90;;;;;;5022083;28;20402;-73
2023/03/27 10:03:13;;;;;;;0.32;0.32;;;5.10;99.90;;;;;;5004825;28;20062;-72
2023/03/27 10:05:39;;;;;;;1.05;0.35;;;5.20;99.90;;;;;;5006860;28;20350;-72
2023/03/27 10:08:31;;;;;;;0.73;0.25;;;5.30;99.90;;;;;;5020609;28;20126;-72
2023/03/27 10:10:58;;;;;;;3.83;0.35;;;5.30;99.90;;;;;;5035953;28;20049;-72
2023/03/27 10:13:27;;;;;;;0.20;0.20;;;5.30;99.90;;;;;;5022377;28;20038;-72
2023/03/27 10:16:03;;;;;;;0.20;0.20;;;5.40;99.90;;;;;;5018399;28;20053;-72
2023/03/27 10:18:33;;;;;;;0.77;0.20;;;5.40;99.90;;;;;;5006479;28;20097;-72
2023/03/27 10:21:05;;;;;;;0.75;0.30;;;5.50;99.90;;;;;;5006171;28;20112;-72
2023/03/27 10:23:43;;;;;;;0.10;0.10;;;5.60;99.90;;;;;;5004461;28;20359;-72
2023/03/27 10:26:12;;;;;;;4.63;0.70;;;5.70;99.90;;;;;;5014882;28;20045;-72
2023/03/27 10:28:45;;;;;;;0.52;0.30;;;5.70;99.90;;;;;;5024396;28;20094;-72
2023/03/27 10:31:31;;;;;;;0.20;0.20;;;5.60;99.90;;;;;;5007555;28;20048;-74
2023/03/27 10:34:01;;;;;;;0.10;0.10;;;5.30;99.90;;;;;;5004889;28;20046;-74
2023/03/27 10:36:32;;;;;;;0.43;0.20;;;5.20;99.90;;;;;;4998256;28;20472;-75
2023/03/27 10:39:16;;;;;;;1.08;0.30;;;5.10;99.90;;;;;;5022941;28;20596;-72
2023/03/27 10:41:46;;;;;;;0.10;0.10;;;5.10;99.90;;;;;;5023755;28;20041;-72
2023/03/27 10:44:19;;;;;;;0.10;0.10;;;5.20;99.90;;;;;;5022935;28;20124;-72
2023/03/27 10:46:45;;;;;;;0.13;0.13;;;5.20;99.90;;;;;;5014279;28;20049;-72
2023/03/27 10:49:10;;;;;;;0.63;0.60;;;5.30;99.90;;;;;;5024839;28;20226;-72
2023/03/27 10:51:39;;;;;;;0.50;0.10;;;5.40;99.90;;;;;;5025104;28;20049;-72
2023/03/27 10:54:20;;;;;;;0.47;0.25;;;5.50;99.90;;;;;;5022717;28;20149;-72
2023/03/27 10:56:50;;;;;;;0.88;0.20;;;5.60;99.90;;;;;;5011897;28;20137;-72
2023/03/27 10:59:54;;;;;;;0.10;0.10;;;5.70;99.90;;;;;;5022746;28;20081;-72
2023/03/27 11:02:30;;;;;;;0.63;0.40;;;5.80;99.90;;;;;;5013827;28;20568;-72
2023/03/27 11:05:36;;;;;;;2.33;0.43;;;5.90;99.90;;;;;;5005638;28;20046;-72
2023/03/27 11:08:12;;;;;;;0.43;0.22;;;6.00;99.90;;;;;;5003070;28;20042;-72
2023/03/27 11:10:45;;;;;;;0.20;0.20;;;6.00;99.90;;;;;;4988071;28;20042;-72
2023/03/27 11:13:28;;;;;;;0.10;0.10;;;6.00;99.90;;;;;;5004116;28;20050;-72
2023/03/27 11:15:57;;;;;;;;;;;5.90;99.90;;;;;;5011210;28;20049;-72
2023/03/27 11:18:28;;;;;;;0.17;0.13;;;5.80;99.90;;;;;;5039829;28;20019;-73
2023/03/27 11:21:07;;;;;;;2.63;0.30;;;5.60;99.90;;;;;;5022190;28;20073;-72
2023/03/27 11:23:46;;;;;;;0.52;0.52;;;5.50;99.90;;;;;;5024323;28;20095;-72
2023/03/27 11:26:16;;;;;;;1.95;0.20;;;5.40;99.90;;;;;;5012209;28;20056;-73
2023/03/27 11:28:47;;;;;;;0.77;0.20;;;5.40;99.90;;;;;;4991739;28;20054;-72
2023/03/27 11:31:36;;;;;;;2.47;0.50;;;5.50;99.90;;;;;;5007191;28;20046;-73
2023/03/27 11:34:14;;;;;;;0.20;0.20;;;5.50;99.90;;;;;;5003683;28;20034;-73
2023/03/27 11:36:50;;;;;;;5.82;0.57;;;5.60;99.90;;;;;;5005009;28;20080;-72
2023/03/27 11:39:47;;;;;;;1.38;0.30;;;5.60;99.90;;;;;;5010855;28;20053;-73
2023/03/27 11:42:17;;;;;;;1.35;0.30;;;5.60;99.90;;;;;;5022418;28;20136;-73
2023/03/27 11:44:43;;;;;;;0.20;0.20;;;5.70;99.90;;;;;;5022147;28;20041;-73
2023/03/27 11:47:31;;;;;;;0.65;0.30;;;5.70;99.90;;;;;;5013229;28;20045;-73
2023/03/27 11:50:17;;;;;;;0.40;0.38;;;5.80;99.90;;;;;;5005470;28;20052;-73
2023/03/27 11:52:43;;;;;;;3.40;0.30;;;5.90;99.90;;;;;;5010801;28;20065;-73
2023/03/27 11:55:47;;;;;;;0.52;0.43;;;6.00;99.90;;;;;;5009870;28;20376;-73
2023/03/27 11:58:37;;;;;;;0.30;0.30;;;6.10;99.90;;;;;;5020268;28;20057;-73
2023/03/27 12:01:11;;;;;;;1.88;0.40;;;6.20;99.90;;;;;;5017178;28;20049;-73
2023/03/27 12:03:43;;;;;;;0.20;0.20;;;6.20;99.90;;;;;;5022724;28;20049;-73
2023/03/27 12:06:31;;;;;;;4.78;0.50;;;6.30;99.90;;;;;;5021528;28;20077;-73
2023/03/27 12:09:15;;;;;;;2.30;0.40;;;6.30;99.90;;;;;;5004671;28;20108;-74
2023/03/27 12:11:51;;;;;;;0.30;0.25;;;6.30;99.90;;;;;;5021453;28;20053;-73
2023/03/27 12:14:48;;;;;;;0.88;0.22;;;6.30;99.90;;;;;;5022286;28;20553;-73
2023/03/27 12:17:24;;;;;;;0.50;0.20;;;6.40;99.90;;;;;;5022667;28;20080;-74
2023/03/27 12:20:14;;;;;;;0.50;0.30;;;6.40;99.90;;;;;;5017498;28;20449;-73
2023/03/27 12:22:53;;;;;;;0.30;0.30;;;6.40;99.90;;;;;;5023190;28;20045;-73
2023/03/27 12:25:29;;;;;;;0.28;0.28;;;6.50;99.90;;;;;;5023628;28;20500;-73
2023/03/27 12:28:27;;;;;;;0.57;0.25;;;6.50;99.90;;;;;;5005972;28;20050;-74
2023/03/27 12:31:05;;;;;;;1.40;0.40;;;6.50;99.90;;;;;;5008078;28;20061;-74
2023/03/27 12:34:01;;;;;;;0.40;0.22;;;6.60;99.90;;;;;;5009207;28;20057;-74
2023/03/27 12:36:33;;;;;;;1.48;0.22;;;6.60;99.90;;;;;;5004014;28;20041;-74
2023/03/27 12:38:59;;;;;;;0.30;0.30;;;6.50;99.90;;;;;;5020098;28;20042;-75
2023/03/27 12:41:36;;;;;;;2.50;0.35;;;6.50;99.90;;;;;;5013646;28;20508;-74
2023/03/27 12:44:05;;;;;;;1.25;0.20;;;6.40;99.90;;;;;;5036574;28;20044;-75
2023/03/27 12:46:34;;;;;;;3.80;0.73;;;6.40;99.90;;;;;;5018142;28;20083;-75
2023/03/27 12:49:22;;;;;;;2.50;0.10;;;6.40;99.90;;;;;;5033849;28;20106;-75
2023/03/27 12:51:56;;;;;;;0.10;0.10;;;6.50;99.90;;;;;;5021815;28;20052;-75
2023/03/27 12:54:26;;;;;;;0.10;0.10;;;6.70;99.90;;;;;;5015910;28;20030;-76
2023/03/27 12:56:57;;;;;;;1.25;0.55;;;6.70;99.90;;;;;;5012830;28;20107;-76
2023/03/27 12:59:26;;;;;;;0.53;0.20;;;6.80;99.90;;;;;;5002348;28;20126;-74
2023/03/27 13:02:13;;;;;;;0.20;0.20;;;6.80;99.90;;;;;;5016278;28;20280;-74
2023/03/27 13:05:01;;;;;;;1.48;0.20;;;6.70;99.90;;;;;;5013016;28;20050;-76
2023/03/27 13:07:55;;;;;;;0.20;0.20;;;6.70;99.90;;;;;;5014909;28;20054;-73
2023/03/27 13:10:34;;;;;;;0.47;0.30;;;6.60;99.90;;;;;;5003235;28;20120;-74
2023/03/27 13:13:21;;;;;;;0.55;0.30;;;6.60;99.90;;;;;;5010929;28;20632;-73
2023/03/27 13:16:01;;;;;;;0.90;0.50;;;6.60;99.90;;;;;;5032946;28;20045;-72
2023/03/27 13:18:41;;;;;;;0.20;0.20;;;6.60;99.90;;;;;;5011932;28;20049;-74
2023/03/27 13:21:26;;;;;;;0.25;0.22;;;6.70;99.90;;;;;;5024224;28;20049;-73
2023/03/27 13:24:15;;;;;;;0.10;0.10;;;6.60;99.90;;;;;;5007665;28;20084;-72
2023/03/27 13:26:57;;;;;;;3.25;0.32;;;6.50;99.90;;;;;;5012172;28;20524;-73